createdAt,value
2018-07-25T00:00:49.989Z,939.78
2018-07-25T00:01:50.001Z,939.83
2018-07-25T00:02:49.993Z,939.79
2018-07-25T00:03:50.165Z,939.83
2018-07-25T00:04:50.027Z,939.81
2018-07-25T00:05:50.025Z,939.82
2018-07-25T00:06:50.057Z,939.78
2018-07-25T00:07:50.063Z,939.79
2018-07-25T00:08:50.238Z,939.72
2018-07-25T00:09:50.118Z,939.78
2018-07-25T00:10:50.106Z,939.75
2018-07-25T00:11:50.102Z,939.75
2018-07-25T00:12:50.120Z,939.78
2018-07-25T00:13:50.162Z,939.78
2018-07-25T00:14:50.408Z,939.76
2018-07-25T00:15:50.145Z,939.79
2018-07-25T00:16:50.164Z,939.77
2018-07-25T00:17:50.169Z,939.82
2018-07-25T00:18:50.180Z,939.79
2018-07-25T00:19:50.442Z,939.76
2018-07-25T00:20:50.236Z,939.76
2018-07-25T00:21:50.243Z,939.79
2018-07-25T00:22:50.242Z,939.76
2018-07-25T00:23:50.275Z,939.73
2018-07-25T00:24:50.260Z,939.73
2018-07-25T00:25:50.433Z,939.71
2018-07-25T00:26:50.305Z,939.71
2018-07-25T00:27:50.288Z,939.73
2018-07-25T00:28:50.308Z,939.74
2018-07-25T00:29:50.337Z,939.77
2018-07-25T00:30:50.333Z,939.81
2018-07-25T00:31:50.504Z,939.79
2018-07-25T00:32:50.396Z,939.79
2018-07-25T00:33:50.357Z,939.81
2018-07-25T00:34:50.458Z,939.80
2018-07-25T00:35:50.397Z,939.80
2018-07-25T00:36:50.415Z,939.78
2018-07-25T00:37:50.557Z,939.78
2018-07-25T00:38:50.417Z,939.81
2018-07-25T00:39:50.463Z,939.79
2018-07-25T00:40:50.459Z,939.81
2018-07-25T00:41:50.467Z,939.72
2018-07-25T00:42:50.624Z,939.80
2018-07-25T00:43:50.483Z,939.80
2018-07-25T00:44:50.539Z,939.81
2018-07-25T00:45:50.526Z,939.79
2018-07-25T00:46:50.530Z,939.74
2018-07-25T00:47:50.538Z,939.73
2018-07-25T00:48:50.687Z,939.70
2018-07-25T00:49:50.567Z,939.70
2018-07-25T00:50:50.585Z,939.74
2018-07-25T00:51:50.602Z,939.78
2018-07-25T00:52:50.609Z,939.80
2018-07-25T00:53:50.597Z,939.77
2018-07-25T00:54:50.807Z,939.78
2018-07-25T00:55:50.651Z,939.78
2018-07-25T00:56:50.715Z,939.77
2018-07-25T00:57:50.669Z,939.77
2018-07-25T00:58:50.708Z,939.81
2018-07-25T00:59:50.823Z,939.75
2018-07-25T01:00:50.725Z,939.75
2018-07-25T01:01:50.724Z,939.77
2018-07-25T01:02:50.710Z,939.76
2018-07-25T01:03:50.715Z,939.80
2018-07-25T01:04:50.961Z,939.79
2018-07-25T01:05:50.758Z,939.80
2018-07-25T01:06:50.787Z,939.80
2018-07-25T01:07:50.782Z,939.83
2018-07-25T01:08:50.778Z,939.84
2018-07-25T01:09:50.984Z,939.82
2018-07-25T01:10:50.830Z,939.80
2018-07-25T01:11:50.820Z,939.83
2018-07-25T01:12:50.951Z,939.80
2018-07-25T01:13:50.839Z,939.88
2018-07-25T01:14:51.004Z,939.91
2018-07-25T01:15:50.891Z,939.93
2018-07-25T01:16:50.909Z,939.94
2018-07-25T01:17:50.885Z,939.98
2018-07-25T01:18:50.912Z,940.00
2018-07-25T01:19:50.985Z,940.01
2018-07-25T01:20:51.048Z,940.01
2018-07-25T01:21:50.939Z,939.99
2018-07-25T01:22:51.105Z,939.99
2018-07-25T01:23:50.966Z,939.97
2018-07-25T01:24:51.016Z,939.93
2018-07-25T01:25:50.990Z,939.98
2018-07-25T01:26:50.997Z,939.90
2018-07-25T01:27:51.002Z,939.92
2018-07-25T01:28:51.177Z,939.92
2018-07-25T01:29:51.093Z,939.90
2018-07-25T01:30:51.074Z,939.94
2018-07-25T01:31:51.181Z,939.90
2018-07-25T01:32:51.057Z,939.90
2018-07-25T01:33:51.073Z,939.92
2018-07-25T01:34:51.313Z,939.89
2018-07-25T01:35:51.115Z,939.87
2018-07-25T01:36:51.158Z,939.85
2018-07-25T01:37:51.116Z,939.86
2018-07-25T01:38:51.179Z,939.88
2018-07-25T01:39:51.311Z,939.86
2018-07-25T01:40:51.182Z,939.85
2018-07-25T01:41:51.296Z,939.82
2018-07-25T01:42:51.225Z,939.87
2018-07-25T01:43:51.198Z,939.82
2018-07-25T01:44:51.220Z,939.88
2018-07-25T01:45:51.414Z,939.87
2018-07-25T01:46:51.235Z,939.86
2018-07-25T01:47:51.242Z,939.83
2018-07-25T01:48:51.263Z,939.84
2018-07-25T01:49:51.310Z,939.79
2018-07-25T01:50:51.292Z,939.81
2018-07-25T01:51:51.347Z,939.83
2018-07-25T01:52:51.306Z,939.82
2018-07-25T01:53:51.307Z,939.85
2018-07-25T01:54:51.324Z,939.81
2018-07-25T01:55:51.502Z,939.82
2018-07-25T01:56:51.477Z,939.84
2018-07-25T01:57:51.442Z,939.86
2018-07-25T01:58:51.381Z,939.83
2018-07-25T01:59:51.412Z,939.83
2018-07-25T02:00:51.562Z,939.83
2018-07-25T02:01:51.426Z,939.80
2018-07-25T02:02:51.456Z,939.84
2018-07-25T02:03:51.474Z,939.83
2018-07-25T02:04:51.486Z,939.80
2018-07-25T02:05:51.626Z,939.76
2018-07-25T02:06:51.478Z,939.74
2018-07-25T02:07:51.503Z,939.77
2018-07-25T02:08:51.626Z,939.78
2018-07-25T02:09:51.539Z,939.79
2018-07-25T02:10:51.677Z,939.79
2018-07-25T02:11:51.525Z,939.77
2018-07-25T02:12:51.583Z,939.74
2018-07-25T02:13:51.560Z,939.79
2018-07-25T02:14:51.602Z,939.78
2018-07-25T02:15:51.724Z,939.79
2018-07-25T02:16:51.604Z,939.81
2018-07-25T02:17:51.616Z,939.77
2018-07-25T02:18:51.691Z,939.77
2018-07-25T02:19:51.657Z,939.74
2018-07-25T02:20:51.806Z,939.81
2018-07-25T02:21:51.655Z,939.74
2018-07-25T02:22:51.683Z,939.74
2018-07-25T02:23:51.705Z,939.76
2018-07-25T02:24:51.701Z,939.74
2018-07-25T02:25:51.884Z,939.73
2018-07-25T02:26:51.844Z,939.78
2018-07-25T02:27:51.759Z,939.82
2018-07-25T02:28:51.761Z,939.78
2018-07-25T02:29:51.747Z,939.83
2018-07-25T02:30:52.046Z,939.81
2018-07-25T02:31:51.809Z,939.79
2018-07-25T02:32:51.807Z,939.76
2018-07-25T02:33:51.822Z,939.79
2018-07-25T02:34:51.863Z,939.79
2018-07-25T02:35:51.978Z,939.83
2018-07-25T02:36:51.841Z,939.82
2018-07-25T02:37:51.983Z,939.80
2018-07-25T02:38:51.896Z,939.78
2018-07-25T02:39:51.888Z,939.74
2018-07-25T02:40:52.008Z,939.81
2018-07-25T02:41:51.915Z,939.78
2018-07-25T02:42:51.927Z,939.77
2018-07-25T02:43:51.978Z,939.77
2018-07-25T02:44:51.953Z,939.81
2018-07-25T02:45:52.121Z,939.81
2018-07-25T02:46:52.023Z,939.74
2018-07-25T02:47:52.022Z,939.80
2018-07-25T02:48:52.002Z,939.82
2018-07-25T02:49:52.029Z,939.80
2018-07-25T02:50:52.107Z,939.83
2018-07-25T02:51:52.031Z,939.86
2018-07-25T02:52:52.056Z,939.84
2018-07-25T02:53:52.053Z,939.80
2018-07-25T02:54:52.110Z,939.86
2018-07-25T02:55:52.185Z,939.81
2018-07-25T02:56:52.118Z,939.80
2018-07-25T02:57:52.140Z,939.79
2018-07-25T02:58:52.114Z,939.82
2018-07-25T02:59:52.142Z,939.82
2018-07-25T03:00:52.240Z,939.80
2018-07-25T03:01:52.160Z,939.83
2018-07-25T03:02:52.174Z,939.78
2018-07-25T03:03:52.171Z,939.80
2018-07-25T03:04:52.206Z,939.82
2018-07-25T03:05:52.348Z,939.80
2018-07-25T03:06:52.218Z,939.84
2018-07-25T03:07:52.352Z,939.83
2018-07-25T03:08:52.272Z,939.84
2018-07-25T03:09:52.262Z,939.83
2018-07-25T03:10:52.274Z,939.79
2018-07-25T03:11:52.382Z,939.80
2018-07-25T03:12:52.310Z,939.78
2018-07-25T03:13:52.297Z,939.83
2018-07-25T03:14:52.301Z,939.80
2018-07-25T03:15:52.328Z,939.79
2018-07-25T03:16:52.448Z,939.74
2018-07-25T03:17:52.573Z,939.73
2018-07-25T03:18:52.412Z,939.73
2018-07-25T03:19:52.398Z,939.73
2018-07-25T03:20:52.390Z,939.71
2018-07-25T03:21:52.408Z,939.70
2018-07-25T03:22:52.569Z,939.70
2018-07-25T03:23:52.431Z,939.73
2018-07-25T03:24:52.435Z,939.68
2018-07-25T03:25:52.574Z,939.69
2018-07-25T03:26:52.453Z,939.66
2018-07-25T03:27:52.472Z,939.67
2018-07-25T03:28:52.705Z,939.67
2018-07-25T03:29:52.502Z,939.69
2018-07-25T03:30:52.527Z,939.69
2018-07-25T03:31:52.526Z,939.67
2018-07-25T03:32:52.656Z,939.69
2018-07-25T03:33:52.670Z,939.67
2018-07-25T03:34:52.665Z,939.67
2018-07-25T03:35:52.564Z,939.61
2018-07-25T03:36:52.598Z,939.59
2018-07-25T03:37:52.609Z,939.56
2018-07-25T03:38:52.642Z,939.57
2018-07-25T03:39:52.848Z,939.55
2018-07-25T03:40:52.632Z,939.55
2018-07-25T03:41:52.765Z,939.56
2018-07-25T03:42:52.649Z,939.48
2018-07-25T03:43:52.720Z,939.45
2018-07-25T03:44:52.744Z,939.49
2018-07-25T03:45:52.701Z,939.45
2018-07-25T03:46:52.699Z,939.43
2018-07-25T03:47:52.739Z,939.40
2018-07-25T03:48:52.778Z,939.36
2018-07-25T03:49:52.875Z,939.33
2018-07-25T03:50:52.756Z,939.30
2018-07-25T03:51:52.781Z,939.30
2018-07-25T03:52:52.782Z,939.27
2018-07-25T03:53:52.916Z,939.27
2018-07-25T03:54:52.910Z,939.23
2018-07-25T03:55:52.821Z,939.18
2018-07-25T03:56:52.828Z,939.20
2018-07-25T03:57:52.843Z,939.18
2018-07-25T03:58:52.858Z,939.19
2018-07-25T03:59:52.971Z,939.19
2018-07-25T04:00:52.889Z,939.18
2018-07-25T04:01:52.920Z,939.21
2018-07-25T04:02:52.917Z,939.22
2018-07-25T04:03:52.928Z,939.18
2018-07-25T04:04:53.148Z,939.22
2018-07-25T04:05:52.942Z,939.16
2018-07-25T04:06:52.949Z,939.17
2018-07-25T04:07:52.970Z,939.13
2018-07-25T04:08:52.986Z,939.18
2018-07-25T04:09:53.074Z,939.16
2018-07-25T04:10:53.123Z,939.21
2018-07-25T04:11:53.010Z,939.20
2018-07-25T04:12:53.156Z,939.26
2018-07-25T04:13:53.038Z,939.23
2018-07-25T04:14:53.141Z,939.23
2018-07-25T04:15:53.077Z,939.22
2018-07-25T04:16:53.072Z,939.21
2018-07-25T04:17:53.091Z,939.19
2018-07-25T04:18:53.099Z,939.15
2018-07-25T04:19:53.166Z,939.18
2018-07-25T04:20:53.137Z,939.15
2018-07-25T04:21:53.260Z,939.14
2018-07-25T04:22:53.142Z,939.15
2018-07-25T04:23:53.147Z,939.13
2018-07-25T04:24:53.327Z,939.15
2018-07-25T04:25:53.224Z,939.11
2018-07-25T04:26:53.192Z,939.14
2018-07-25T04:27:53.208Z,939.09
2018-07-25T04:28:53.229Z,939.09
2018-07-25T04:29:53.264Z,939.06
2018-07-25T04:30:53.385Z,939.03
2018-07-25T04:31:53.280Z,939.08
2018-07-25T04:32:53.286Z,939.04
2018-07-25T04:33:53.409Z,939.05
2018-07-25T04:34:53.427Z,939.10
2018-07-25T04:35:53.310Z,939.02
2018-07-25T04:36:53.461Z,939.00
2018-07-25T04:37:53.375Z,938.99
2018-07-25T04:38:53.355Z,938.98
2018-07-25T04:39:53.370Z,938.98
2018-07-25T04:40:53.491Z,939.00
2018-07-25T04:41:53.386Z,938.92
2018-07-25T04:42:53.494Z,938.89
2018-07-25T04:43:53.406Z,938.87
2018-07-25T04:44:53.544Z,938.88
2018-07-25T04:45:53.428Z,938.87
2018-07-25T04:46:53.439Z,938.88
2018-07-25T04:47:53.571Z,938.86
2018-07-25T04:48:53.596Z,938.85
2018-07-25T04:49:53.477Z,938.86
2018-07-25T04:50:53.620Z,938.85
2018-07-25T04:51:53.521Z,938.85
2018-07-25T04:52:53.635Z,938.87
2018-07-25T04:53:53.545Z,938.85
2018-07-25T04:54:53.668Z,938.85
2018-07-25T04:55:53.605Z,938.84
2018-07-25T04:56:53.564Z,938.85
2018-07-25T04:57:53.702Z,938.82
2018-07-25T04:58:53.587Z,938.84
2018-07-25T04:59:53.649Z,938.86
2018-07-25T05:00:53.618Z,938.84
2018-07-25T05:01:53.750Z,938.85
2018-07-25T05:02:53.746Z,938.84
2018-07-25T05:03:53.778Z,938.82
2018-07-25T05:04:53.790Z,938.83
2018-07-25T05:05:53.698Z,938.78
2018-07-25T05:06:53.700Z,938.75
2018-07-25T05:07:53.822Z,938.76
2018-07-25T05:08:53.763Z,938.76
2018-07-25T05:09:53.730Z,938.71
2018-07-25T05:10:53.864Z,938.65
2018-07-25T05:11:53.877Z,938.59
2018-07-25T05:12:53.866Z,938.60
2018-07-25T05:13:53.771Z,938.60
2018-07-25T05:14:53.802Z,938.59
2018-07-25T05:15:53.793Z,938.56
2018-07-25T05:16:53.822Z,938.58
2018-07-25T05:17:53.982Z,938.59
2018-07-25T05:18:53.870Z,938.58
2018-07-25T05:19:53.865Z,938.58
2018-07-25T05:20:54.031Z,938.56
2018-07-25T05:21:53.989Z,938.58
2018-07-25T05:22:53.974Z,938.59
2018-07-25T05:23:53.913Z,938.61
2018-07-25T05:24:53.913Z,938.60
2018-07-25T05:25:53.915Z,938.56
2018-07-25T05:26:53.970Z,938.57
2018-07-25T05:27:53.935Z,938.56
2018-07-25T05:28:54.055Z,938.52
2018-07-25T05:29:54.004Z,938.53
2018-07-25T05:30:53.987Z,938.57
2018-07-25T05:31:53.991Z,938.58
2018-07-25T05:32:54.006Z,938.52
2018-07-25T05:33:54.230Z,938.55
2018-07-25T05:34:54.024Z,938.51
2018-07-25T05:35:54.023Z,938.48
2018-07-25T05:36:54.046Z,938.49
2018-07-25T05:37:54.056Z,938.52
2018-07-25T05:38:54.200Z,938.44
2018-07-25T05:39:54.189Z,938.48
2018-07-25T05:40:54.095Z,938.43
2018-07-25T05:41:54.118Z,938.42
2018-07-25T05:42:54.142Z,938.44
2018-07-25T05:43:54.330Z,938.43
2018-07-25T05:44:54.126Z,938.35
2018-07-25T05:45:54.249Z,938.32
2018-07-25T05:46:54.154Z,938.34
2018-07-25T05:47:54.186Z,938.37
2018-07-25T05:48:54.186Z,938.35
2018-07-25T05:49:54.202Z,938.35
2018-07-25T05:50:54.366Z,938.34
2018-07-25T05:51:54.213Z,938.33
2018-07-25T05:52:54.229Z,938.33
2018-07-25T05:53:54.259Z,938.34
2018-07-25T05:54:54.252Z,938.31
2018-07-25T05:55:54.281Z,938.34
2018-07-25T05:56:54.325Z,938.37
2018-07-25T05:57:54.416Z,938.36
2018-07-25T05:58:54.431Z,938.33
2018-07-25T05:59:54.332Z,938.32
2018-07-25T06:00:54.334Z,938.35
2018-07-25T06:01:54.358Z,938.34
2018-07-25T06:02:54.528Z,938.35
2018-07-25T06:03:54.418Z,938.33
2018-07-25T06:04:54.389Z,938.37
2018-07-25T06:05:54.465Z,938.33
2018-07-25T06:06:54.409Z,938.33
2018-07-25T06:07:54.408Z,938.30
2018-07-25T06:08:54.491Z,938.30
2018-07-25T06:09:54.444Z,938.27
2018-07-25T06:10:54.490Z,938.25
2018-07-25T06:11:54.458Z,938.21
2018-07-25T06:12:54.625Z,938.21
2018-07-25T06:13:54.590Z,938.18
2018-07-25T06:14:54.498Z,938.17
2018-07-25T06:15:54.645Z,938.19
2018-07-25T06:16:54.646Z,938.16
2018-07-25T06:17:54.560Z,938.17
2018-07-25T06:18:54.687Z,938.20
2018-07-25T06:19:54.686Z,938.18
2018-07-25T06:20:54.700Z,938.19
2018-07-25T06:21:54.595Z,938.19
2018-07-25T06:22:54.611Z,938.17
2018-07-25T06:23:54.698Z,938.18
2018-07-25T06:24:54.628Z,938.19
2018-07-25T06:25:54.773Z,938.21
2018-07-25T06:26:54.650Z,938.24
2018-07-25T06:27:54.651Z,938.23
2018-07-25T06:28:54.893Z,938.22
2018-07-25T06:29:54.694Z,938.22
2018-07-25T06:30:54.691Z,938.21
2018-07-25T06:31:54.702Z,938.24
2018-07-25T06:32:54.722Z,938.20
2018-07-25T06:33:54.903Z,938.22
2018-07-25T06:34:54.731Z,938.21
2018-07-25T06:35:54.764Z,938.19
2018-07-25T06:36:54.785Z,938.16
2018-07-25T06:37:54.939Z,938.17
2018-07-25T06:38:54.912Z,938.16
2018-07-25T06:39:54.845Z,938.14
2018-07-25T06:40:54.823Z,938.12
2018-07-25T06:41:54.816Z,938.12
2018-07-25T06:42:54.890Z,938.11
2018-07-25T06:43:54.958Z,938.13
2018-07-25T06:44:54.880Z,938.11
2018-07-25T06:45:54.922Z,938.15
2018-07-25T06:46:54.896Z,938.17
2018-07-25T06:47:54.901Z,938.15
2018-07-25T06:48:55.018Z,938.18
2018-07-25T06:49:54.963Z,938.16
2018-07-25T06:50:55.054Z,938.16
2018-07-25T06:51:54.958Z,938.18
2018-07-25T06:52:55.086Z,938.16
2018-07-25T06:53:54.955Z,938.14
2018-07-25T06:54:55.077Z,938.12
2018-07-25T06:55:55.049Z,938.14
2018-07-25T06:56:54.996Z,938.10
2018-07-25T06:57:55.013Z,938.11
2018-07-25T06:58:55.029Z,938.11
2018-07-25T06:59:55.045Z,938.12
2018-07-25T07:00:55.277Z,938.09
2018-07-25T07:01:55.067Z,938.08
2018-07-25T07:02:55.119Z,938.09
2018-07-25T07:03:55.081Z,938.08
2018-07-25T07:04:55.093Z,938.12
2018-07-25T07:05:55.199Z,938.08
2018-07-25T07:06:55.191Z,938.12
2018-07-25T07:07:55.129Z,938.14
2018-07-25T07:08:55.197Z,938.11
2018-07-25T07:09:55.167Z,938.13
2018-07-25T07:10:55.177Z,938.09
2018-07-25T07:11:55.302Z,938.12
2018-07-25T07:12:55.322Z,938.12
2018-07-25T07:13:55.332Z,938.13
2018-07-25T07:14:55.236Z,938.12
2018-07-25T07:15:55.242Z,938.10
2018-07-25T07:16:55.253Z,938.14
2018-07-25T07:17:55.378Z,938.09
2018-07-25T07:18:55.280Z,938.10
2018-07-25T07:19:55.276Z,938.14
2018-07-25T07:20:55.292Z,938.14
2018-07-25T07:21:55.352Z,938.15
2018-07-25T07:22:55.493Z,938.12
2018-07-25T07:23:55.462Z,938.09
2018-07-25T07:24:55.466Z,938.03
2018-07-25T07:25:55.446Z,938.05
2018-07-25T07:26:55.488Z,938.09
2018-07-25T07:27:55.488Z,938.03
2018-07-25T07:28:55.390Z,938.07
2018-07-25T07:29:55.445Z,938.04
2018-07-25T07:30:55.414Z,938.07
2018-07-25T07:31:55.553Z,938.04
2018-07-25T07:32:55.552Z,938.06
2018-07-25T07:33:55.579Z,938.04
2018-07-25T07:34:55.473Z,938.03
2018-07-25T07:35:55.482Z,938.01
2018-07-25T07:36:55.485Z,937.97
2018-07-25T07:37:55.595Z,937.98
2018-07-25T07:38:55.638Z,937.97
2018-07-25T07:39:55.527Z,937.96
2018-07-25T07:40:55.524Z,937.92
2018-07-25T07:41:55.553Z,937.96
2018-07-25T07:42:55.674Z,937.95
2018-07-25T07:43:55.698Z,937.99
2018-07-25T07:44:55.594Z,937.97
2018-07-25T07:45:55.599Z,937.95
2018-07-25T07:46:55.738Z,938.03
2018-07-25T07:47:55.708Z,938.00
2018-07-25T07:48:55.640Z,938.02
2018-07-25T07:49:55.633Z,938.03
2018-07-25T07:50:55.660Z,938.05
2018-07-25T07:51:55.680Z,938.05
2018-07-25T07:52:55.779Z,938.07
2018-07-25T07:53:55.738Z,938.05
2018-07-25T07:54:55.759Z,938.04
2018-07-25T07:55:55.755Z,938.06
2018-07-25T07:56:55.736Z,938.05
2018-07-25T07:57:55.844Z,938.06
2018-07-25T07:58:55.766Z,938.07
2018-07-25T07:59:55.775Z,938.11
2018-07-25T08:00:55.774Z,938.08
2018-07-25T08:01:55.909Z,938.06
2018-07-25T08:02:55.856Z,938.03
2018-07-25T08:03:55.817Z,938.01
2018-07-25T08:04:55.861Z,938.04
2018-07-25T08:05:55.839Z,938.04
2018-07-25T08:06:55.962Z,938.05
2018-07-25T08:07:55.860Z,938.03
2018-07-25T08:08:55.875Z,937.98
2018-07-25T08:09:55.889Z,937.99
2018-07-25T08:10:55.910Z,937.96
2018-07-25T08:11:56.007Z,937.96
2018-07-25T08:12:55.934Z,937.96
2018-07-25T08:13:56.054Z,937.96
2018-07-25T08:14:55.992Z,937.97
2018-07-25T08:15:55.963Z,938.03
2018-07-25T08:16:56.130Z,938.01
2018-07-25T08:17:55.997Z,938.04
2018-07-25T08:18:55.994Z,938.06
2018-07-25T08:19:56.004Z,938.16
2018-07-25T08:20:56.035Z,938.12
2018-07-25T08:21:56.170Z,938.15
2018-07-25T08:22:56.027Z,938.17
2018-07-25T08:23:56.081Z,938.17
2018-07-25T08:24:56.071Z,938.22
2018-07-25T08:25:56.060Z,938.21
2018-07-25T08:26:56.262Z,938.24
2018-07-25T08:27:56.209Z,938.20
2018-07-25T08:28:56.121Z,938.18
2018-07-25T08:29:56.129Z,938.17
2018-07-25T08:30:56.152Z,938.21
2018-07-25T08:31:56.145Z,938.19
2018-07-25T08:32:56.304Z,938.21
2018-07-25T08:33:56.171Z,938.25
2018-07-25T08:34:56.279Z,938.24
2018-07-25T08:35:56.202Z,938.23
2018-07-25T08:36:56.214Z,938.29
2018-07-25T08:37:56.308Z,938.29
2018-07-25T08:38:56.231Z,938.29
2018-07-25T08:39:56.225Z,938.32
2018-07-25T08:40:56.249Z,938.32
2018-07-25T08:41:56.275Z,938.33
2018-07-25T08:42:56.287Z,938.33
2018-07-25T08:43:56.400Z,938.32
2018-07-25T08:44:56.293Z,938.35
2018-07-25T08:45:56.318Z,938.37
2018-07-25T08:46:56.526Z,938.35
2018-07-25T08:47:56.326Z,938.36
2018-07-25T08:48:56.383Z,938.37
2018-07-25T08:49:56.417Z,938.37
2018-07-25T08:50:56.361Z,938.33
2018-07-25T08:51:56.658Z,938.37
2018-07-25T08:52:56.560Z,938.38
2018-07-25T08:53:56.405Z,938.40
2018-07-25T08:54:56.438Z,938.38
2018-07-25T08:55:56.441Z,938.42
2018-07-25T08:56:56.544Z,938.41
2018-07-25T08:57:56.579Z,938.42
2018-07-25T08:58:56.589Z,938.39
2018-07-25T08:59:56.481Z,938.41
2018-07-25T09:00:56.480Z,938.41
2018-07-25T09:01:56.655Z,938.46
2018-07-25T09:02:56.517Z,938.45
2018-07-25T09:03:56.545Z,938.47
2018-07-25T09:04:56.540Z,938.47
2018-07-25T09:05:56.535Z,938.50
2018-07-25T09:06:56.781Z,938.50
2018-07-25T09:07:56.569Z,938.55
2018-07-25T09:08:56.598Z,938.61
2018-07-25T09:09:56.717Z,938.62
2018-07-25T09:10:56.733Z,938.67
2018-07-25T09:11:56.842Z,938.70
2018-07-25T09:12:56.725Z,938.69
2018-07-25T09:13:56.654Z,938.69
2018-07-25T09:14:56.671Z,938.72
2018-07-25T09:15:56.689Z,938.74
2018-07-25T09:16:56.983Z,938.78
2018-07-25T09:17:56.714Z,938.72
2018-07-25T09:18:56.801Z,938.75
2018-07-25T09:19:56.750Z,938.76
2018-07-25T09:20:56.729Z,938.80
2018-07-25T09:21:56.800Z,938.80
2018-07-25T09:22:56.879Z,938.78
2018-07-25T09:23:56.778Z,938.79
2018-07-25T09:24:56.792Z,938.80
2018-07-25T09:25:56.788Z,938.76
2018-07-25T09:26:57.033Z,938.73
2018-07-25T09:27:56.816Z,938.77
2018-07-25T09:28:56.832Z,938.76
2018-07-25T09:29:56.840Z,938.75
2018-07-25T09:30:56.862Z,938.75
2018-07-25T09:31:56.869Z,938.76
2018-07-25T09:32:57.034Z,938.73
2018-07-25T09:33:56.936Z,938.80
2018-07-25T09:34:56.886Z,938.81
2018-07-25T09:35:56.949Z,938.82
2018-07-25T09:36:56.959Z,938.78
2018-07-25T09:37:57.046Z,938.82
2018-07-25T09:38:56.952Z,938.81
2018-07-25T09:39:57.081Z,938.80
2018-07-25T09:40:57.014Z,938.80
2018-07-25T09:41:56.985Z,938.80
2018-07-25T09:42:57.098Z,938.82
2018-07-25T09:43:57.008Z,938.83
2018-07-25T09:44:57.029Z,938.89
2018-07-25T09:45:57.033Z,938.87
2018-07-25T09:46:57.212Z,938.91
2018-07-25T09:47:57.213Z,938.94
2018-07-25T09:48:57.072Z,938.92
2018-07-25T09:49:57.204Z,938.92
2018-07-25T09:50:57.096Z,938.93
2018-07-25T09:51:57.105Z,938.83
2018-07-25T09:52:57.305Z,938.84
2018-07-25T09:53:57.117Z,938.80
2018-07-25T09:54:57.135Z,938.86
2018-07-25T09:55:57.164Z,938.85
2018-07-25T09:56:57.161Z,938.93
2018-07-25T09:57:57.298Z,938.85
2018-07-25T09:58:57.388Z,938.87
2018-07-25T09:59:57.236Z,938.87
2018-07-25T10:00:57.218Z,938.91
2018-07-25T10:01:57.362Z,938.95
2018-07-25T10:02:57.259Z,938.97
2018-07-25T10:03:57.353Z,938.98
2018-07-25T10:04:57.306Z,938.96
2018-07-25T10:05:57.328Z,938.95
2018-07-25T10:06:57.337Z,938.95
2018-07-25T10:07:57.297Z,938.98
2018-07-25T10:08:57.303Z,938.96
2018-07-25T10:09:57.421Z,938.94
2018-07-25T10:10:57.335Z,938.97
2018-07-25T10:11:57.345Z,938.98
2018-07-25T10:12:57.494Z,938.97
2018-07-25T10:13:57.385Z,939.01
2018-07-25T10:14:57.572Z,938.98
2018-07-25T10:15:57.444Z,938.99
2018-07-25T10:16:57.532Z,938.95
2018-07-25T10:17:57.700Z,938.95
2018-07-25T10:18:57.554Z,938.97
2018-07-25T10:19:57.476Z,938.96
2018-07-25T10:20:57.585Z,938.92
2018-07-25T10:21:57.515Z,938.93
2018-07-25T10:22:57.675Z,938.99
2018-07-25T10:23:57.624Z,938.99
2018-07-25T10:24:57.549Z,939.00
2018-07-25T10:25:57.568Z,938.99
2018-07-25T10:26:57.538Z,938.98
2018-07-25T10:27:57.671Z,939.03
2018-07-25T10:28:57.683Z,939.06
2018-07-25T10:29:57.570Z,939.05
2018-07-25T10:30:57.579Z,939.09
2018-07-25T10:31:57.652Z,939.12
2018-07-25T10:32:57.880Z,939.17
2018-07-25T10:33:57.631Z,939.15
2018-07-25T10:34:57.647Z,939.12
2018-07-25T10:35:57.677Z,939.15
2018-07-25T10:36:57.682Z,939.15
2018-07-25T10:37:57.828Z,939.17
2018-07-25T10:38:57.733Z,939.17
2018-07-25T10:39:57.714Z,939.19
2018-07-25T10:40:57.761Z,939.20
2018-07-25T10:41:57.739Z,939.20
2018-07-25T10:42:57.882Z,939.18
2018-07-25T10:43:57.750Z,939.19
2018-07-25T10:44:57.808Z,939.20
2018-07-25T10:45:58.058Z,939.19
2018-07-25T10:46:57.915Z,939.16
2018-07-25T10:47:57.804Z,939.17
2018-07-25T10:48:58.229Z,939.19
2018-07-25T10:49:57.838Z,939.26
2018-07-25T10:50:57.964Z,939.26
2018-07-25T10:51:57.874Z,939.25
2018-07-25T10:52:57.866Z,939.31
2018-07-25T10:53:58.008Z,939.30
2018-07-25T10:54:58.072Z,939.32
2018-07-25T10:55:57.925Z,939.32
2018-07-25T10:56:58.045Z,939.33
2018-07-25T10:57:57.984Z,939.32
2018-07-25T10:58:57.994Z,939.29
2018-07-25T10:59:57.962Z,939.31
2018-07-25T11:00:58.084Z,939.27
2018-07-25T11:01:58.043Z,939.28
2018-07-25T11:02:58.000Z,939.31
2018-07-25T11:03:58.074Z,939.30
2018-07-25T11:04:58.031Z,939.33
2018-07-25T11:05:58.198Z,939.36
2018-07-25T11:06:58.055Z,939.37
2018-07-25T11:07:58.080Z,939.38
2018-07-25T11:09:58.095Z,939.35
2018-07-25T11:10:58.105Z,939.37
2018-07-25T11:11:58.268Z,939.36
2018-07-25T11:12:58.132Z,939.39
2018-07-25T11:13:58.153Z,939.40
2018-07-25T11:14:58.196Z,939.44
2018-07-25T11:15:58.168Z,939.43
2018-07-25T11:16:58.192Z,939.46
2018-07-25T11:17:58.390Z,939.49
2018-07-25T11:18:58.208Z,939.45
2018-07-25T11:19:58.230Z,939.54
2018-07-25T11:20:58.236Z,939.55
2018-07-25T11:21:58.250Z,939.58
2018-07-25T11:22:58.462Z,939.62
2018-07-25T11:23:58.276Z,939.63
2018-07-25T11:24:58.284Z,939.65
2018-07-25T11:25:58.318Z,939.66
2018-07-25T11:26:58.329Z,939.67
2018-07-25T11:27:58.552Z,939.68
2018-07-25T11:28:58.463Z,939.66
2018-07-25T11:29:58.482Z,939.72
2018-07-25T11:30:58.377Z,939.67
2018-07-25T11:31:58.383Z,939.67
2018-07-25T11:32:58.551Z,939.69
2018-07-25T11:33:58.421Z,939.69
2018-07-25T11:34:58.416Z,939.73
2018-07-25T11:35:58.423Z,939.73
2018-07-25T11:36:58.440Z,939.76
2018-07-25T11:37:58.617Z,939.74
2018-07-25T11:38:58.475Z,939.76
2018-07-25T11:39:58.532Z,939.78
2018-07-25T11:40:58.503Z,939.77
2018-07-25T11:41:58.519Z,939.78
2018-07-25T11:42:58.804Z,939.81
2018-07-25T11:43:58.570Z,939.79
2018-07-25T11:44:58.570Z,939.79
2018-07-25T11:45:58.584Z,939.81
2018-07-25T11:46:58.599Z,939.85
2018-07-25T11:47:58.752Z,939.85
2018-07-25T11:48:58.623Z,939.86
2018-07-25T11:49:58.625Z,939.83
2018-07-25T11:50:58.638Z,939.82
2018-07-25T11:51:58.688Z,939.86
2018-07-25T11:52:58.813Z,939.86
2018-07-25T11:53:58.678Z,939.90
2018-07-25T11:54:58.695Z,939.96
2018-07-25T11:55:58.830Z,939.93
2018-07-25T11:56:58.843Z,939.93
2018-07-25T11:57:58.890Z,939.95
2018-07-25T11:58:58.870Z,940.00
2018-07-25T11:59:58.767Z,940.03
2018-07-25T12:00:58.829Z,940.06
2018-07-25T12:01:58.814Z,940.07
2018-07-25T12:02:58.962Z,940.03
2018-07-25T12:03:58.828Z,940.03
2018-07-25T12:04:58.835Z,940.06
2018-07-25T12:05:58.852Z,940.00
2018-07-25T12:07:59.035Z,940.07
2018-07-25T12:08:58.954Z,940.04
2018-07-25T12:09:58.903Z,940.04
2018-07-25T12:10:58.935Z,940.04
2018-07-25T12:11:58.937Z,940.03
2018-07-25T12:12:59.084Z,940.03
2018-07-25T12:13:59.109Z,940.08
2018-07-25T12:14:59.098Z,940.10
2018-07-25T12:15:59.110Z,940.10
2018-07-25T12:16:59.008Z,940.11
2018-07-25T12:17:59.022Z,940.10
2018-07-25T12:18:59.182Z,940.15
2018-07-25T12:19:59.045Z,940.18
2018-07-25T12:20:59.069Z,940.17
2018-07-25T12:21:59.078Z,940.19
2018-07-25T12:22:59.098Z,940.23
2018-07-25T12:23:59.263Z,940.26
2018-07-25T12:24:59.241Z,940.23
2018-07-25T12:25:59.256Z,940.25
2018-07-25T12:26:59.313Z,940.25
2018-07-25T12:27:59.163Z,940.21
2018-07-25T12:28:59.369Z,940.22
2018-07-25T12:29:59.201Z,940.19
2018-07-25T12:30:59.337Z,940.14